sensor_id;sensor_type;location;lat;lon;timestamp;P1;durP1;ratioP1;P2;durP2;ratioP2
74707;SDS011;63360;50.104;8.074;2023-07-20T00:01:51;4.30;;;1.80;;
74707;SDS011;63360;50.104;8.074;2023-07-20T00:04:17;5.75;;;1.83;;
74707;SDS011;63360;50.104;8.074;2023-07-20T00:06:44;4.40;;;1.70;;
74707;SDS011;63360;50.104;8.074;2023-07-20T00:09:11;4.00;;;1.70;;
74707;SDS011;63360;50.104;8.074;2023-07-20T00:11:37;5.47;;;1.70;;
74707;SDS011;63360;50.104;8.074;2023-07-20T00:14:05;6.30;;;1.90;;
74707;SDS011;63360;50.104;8.074;2023-07-20T00:16:32;5.43;;;1.60;;
74707;SDS011;63360;50.104;8.074;2023-07-20T00:18:58;4.53;;;1.88;;
74707;SDS011;63360;50.104;8.074;2023-07-20T00:21:25;3.65;;;2.03;;
74707;SDS011;63360;50.104;8.074;2023-07-20T00:23:52;4.20;;;1.52;;
74707;SDS011;63360;50.104;8.074;2023-07-20T00:26:19;5.03;;;1.70;;
74707;SDS011;63360;50.104;8.074;2023-07-20T00:28:48;5.30;;;1.65;;
74707;SDS011;63360;50.104;8.074;2023-07-20T00:31:16;4.43;;;1.80;;
74707;SDS011;63360;50.104;8.074;2023-07-20T00:33:42;3.58;;;1.70;;
74707;SDS011;63360;50.104;8.074;2023-07-20T00:36:09;4.22;;;1.90;;
74707;SDS011;63360;50.104;8.074;2023-07-20T00:38:35;5.03;;;1.90;;
74707;SDS011;63360;50.104;8.074;2023-07-20T00:41:02;5.28;;;1.92;;
74707;SDS011;63360;50.104;8.074;2023-07-20T00:43:28;5.75;;;1.73;;
74707;SDS011;63360;50.104;8.074;2023-07-20T00:45:55;3.58;;;1.65;;
74707;SDS011;63360;50.104;8.074;2023-07-20T00:48:22;3.95;;;1.88;;
74707;SDS011;63360;50.104;8.074;2023-07-20T00:50:49;5.03;;;1.97;;
74707;SDS011;63360;50.104;8.074;2023-07-20T00:53:16;4.45;;;1.67;;
74707;SDS011;63360;50.104;8.074;2023-07-20T00:55:43;4.70;;;1.63;;
74707;SDS011;63360;50.104;8.074;2023-07-20T00:58:10;4.18;;;1.55;;
74707;SDS011;63360;50.104;8.074;2023-07-20T01:00:37;3.65;;;1.60;;
74707;SDS011;63360;50.104;8.074;2023-07-20T01:03:03;4.70;;;1.70;;
74707;SDS011;63360;50.104;8.074;2023-07-20T01:05:38;5.85;;;1.52;;
74707;SDS011;63360;50.104;8.074;2023-07-20T01:08:37;4.80;;;1.77;;
74707;SDS011;63360;50.104;8.074;2023-07-20T01:11:09;2.90;;;1.40;;
74707;SDS011;63360;50.104;8.074;2023-07-20T01:13:39;4.18;;;1.70;;
74707;SDS011;63360;50.104;8.074;2023-07-20T01:16:06;4.07;;;1.60;;
74707;SDS011;63360;50.104;8.074;2023-07-20T01:18:32;4.22;;;1.60;;
74707;SDS011;63360;50.104;8.074;2023-07-20T01:20:59;3.38;;;1.63;;
74707;SDS011;63360;50.104;8.074;2023-07-20T01:23:37;5.07;;;2.05;;
74707;SDS011;63360;50.104;8.074;2023-07-20T01:26:23;5.15;;;1.90;;
74707;SDS011;63360;50.104;8.074;2023-07-20T01:32:04;4.50;;;1.90;;
74707;SDS011;63360;50.104;8.074;2023-07-20T01:34:33;3.47;;;1.60;;
74707;SDS011;63360;50.104;8.074;2023-07-20T01:37:02;4.78;;;1.80;;
74707;SDS011;63360;50.104;8.074;2023-07-20T01:39:30;4.35;;;2.00;;
74707;SDS011;63360;50.104;8.074;2023-07-20T01:41:58;5.27;;;1.80;;
74707;SDS011;63360;50.104;8.074;2023-07-20T01:44:25;6.32;;;1.45;;
74707;SDS011;63360;50.104;8.074;2023-07-20T01:46:52;3.50;;;1.77;;
74707;SDS011;63360;50.104;8.074;2023-07-20T01:49:18;3.90;;;1.90;;
74707;SDS011;63360;50.104;8.074;2023-07-20T01:51:45;3.85;;;1.70;;
74707;SDS011;63360;50.104;8.074;2023-07-20T01:54:11;7.17;;;2.07;;
74707;SDS011;63360;50.104;8.074;2023-07-20T01:56:37;4.53;;;1.60;;
74707;SDS011;63360;50.104;8.074;2023-07-20T01:59:04;4.03;;;1.50;;
74707;SDS011;63360;50.104;8.074;2023-07-20T02:01:30;5.88;;;1.73;;
74707;SDS011;63360;50.104;8.074;2023-07-20T02:03:57;3.65;;;1.60;;
74707;SDS011;63360;50.104;8.074;2023-07-20T02:06:23;3.43;;;1.47;;
74707;SDS011;63360;50.104;8.074;2023-07-20T02:08:50;4.80;;;1.60;;
74707;SDS011;63360;50.104;8.074;2023-07-20T02:11:17;3.20;;;1.60;;
74707;SDS011;63360;50.104;8.074;2023-07-20T02:13:43;4.20;;;1.80;;
74707;SDS011;63360;50.104;8.074;2023-07-20T02:16:09;5.35;;;1.73;;
74707;SDS011;63360;50.104;8.074;2023-07-20T02:18:37;4.77;;;1.63;;
74707;SDS011;63360;50.104;8.074;2023-07-20T02:21:04;6.55;;;1.60;;
74707;SDS011;63360;50.104;8.074;2023-07-20T02:23:30;3.80;;;1.40;;
74707;SDS011;63360;50.104;8.074;2023-07-20T02:25:56;3.90;;;1.60;;
74707;SDS011;63360;50.104;8.074;2023-07-20T02:28:23;3.42;;;1.48;;
74707;SDS011;63360;50.104;8.074;2023-07-20T02:30:49;5.53;;;1.63;;
74707;SDS011;63360;50.104;8.074;2023-07-20T02:33:16;4.13;;;1.50;;
74707;SDS011;63360;50.104;8.074;2023-07-20T02:35:42;3.38;;;1.60;;
74707;SDS011;63360;50.104;8.074;2023-07-20T02:38:09;3.72;;;1.70;;
74707;SDS011;63360;50.104;8.074;2023-07-20T02:40:35;4.15;;;1.48;;
74707;SDS011;63360;50.104;8.074;2023-07-20T02:43:02;3.10;;;1.30;;
74707;SDS011;63360;50.104;8.074;2023-07-20T02:45:28;5.10;;;1.70;;
74707;SDS011;63360;50.104;8.074;2023-07-20T02:47:55;3.78;;;1.65;;
74707;SDS011;63360;50.104;8.074;2023-07-20T02:50:22;3.30;;;1.40;;
74707;SDS011;63360;50.104;8.074;2023-07-20T02:52:48;2.85;;;1.38;;
74707;SDS011;63360;50.104;8.074;2023-07-20T02:55:15;4.17;;;1.53;;
74707;SDS011;63360;50.104;8.074;2023-07-20T02:57:41;3.35;;;1.40;;
74707;SDS011;63360;50.104;8.074;2023-07-20T03:00:08;3.85;;;1.45;;
74707;SDS011;63360;50.104;8.074;2023-07-20T03:02:35;5.00;;;1.50;;
74707;SDS011;63360;50.104;8.074;2023-07-20T03:05:02;4.10;;;1.38;;
74707;SDS011;63360;50.104;8.074;2023-07-20T03:07:31;4.13;;;1.67;;
74707;SDS011;63360;50.104;8.074;2023-07-20T03:09:58;3.83;;;1.40;;
74707;SDS011;63360;50.104;8.074;2023-07-20T03:12:25;4.20;;;1.80;;
74707;SDS011;63360;50.104;8.074;2023-07-20T03:14:51;6.13;;;1.55;;
74707;SDS011;63360;50.104;8.074;2023-07-20T03:17:18;3.88;;;1.45;;
74707;SDS011;63360;50.104;8.074;2023-07-20T03:19:46;3.67;;;1.30;;
74707;SDS011;63360;50.104;8.074;2023-07-20T03:22:13;4.75;;;1.55;;
74707;SDS011;63360;50.104;8.074;2023-07-20T03:24:39;4.47;;;1.55;;
74707;SDS011;63360;50.104;8.074;2023-07-20T03:27:06;4.25;;;1.40;;
74707;SDS011;63360;50.104;8.074;2023-07-20T03:29:32;4.00;;;1.38;;
74707;SDS011;63360;50.104;8.074;2023-07-20T03:31:59;5.30;;;1.60;;
74707;SDS011;63360;50.104;8.074;2023-07-20T03:34:26;3.72;;;1.60;;
74707;SDS011;63360;50.104;8.074;2023-07-20T03:36:52;6.35;;;1.73;;
74707;SDS011;63360;50.104;8.074;2023-07-20T03:39:18;4.05;;;1.50;;
74707;SDS011;63360;50.104;8.074;2023-07-20T03:41:45;5.68;;;1.83;;
74707;SDS011;63360;50.104;8.074;2023-07-20T03:44:12;2.70;;;1.37;;
74707;SDS011;63360;50.104;8.074;2023-07-20T03:46:38;4.32;;;1.33;;
74707;SDS011;63360;50.104;8.074;2023-07-20T03:49:05;3.55;;;1.42;;
74707;SDS011;63360;50.104;8.074;2023-07-20T03:51:32;3.42;;;1.40;;
74707;SDS011;63360;50.104;8.074;2023-07-20T03:53:58;7.05;;;1.58;;
74707;SDS011;63360;50.104;8.074;2023-07-20T03:56:25;6.03;;;1.53;;
74707;SDS011;63360;50.104;8.074;2023-07-20T03:58:52;3.55;;;1.60;;
74707;SDS011;63360;50.104;8.074;2023-07-20T04:01:19;5.53;;;1.63;;
74707;SDS011;63360;50.104;8.074;2023-07-20T04:03:45;4.18;;;1.45;;
74707;SDS011;63360;50.104;8.074;2023-07-20T04:06:15;4.22;;;1.50;;
74707;SDS011;63360;50.104;8.074;2023-07-20T04:08:43;4.73;;;1.33;;
74707;SDS011;63360;50.104;8.074;2023-07-20T04:11:10;4.93;;;1.50;;
74707;SDS011;63360;50.104;8.074;2023-07-20T04:13:36;6.30;;;1.90;;
74707;SDS011;63360;50.104;8.074;2023-07-20T04:16:03;4.00;;;1.40;;
74707;SDS011;63360;50.104;8.074;2023-07-20T04:18:30;3.50;;;1.35;;
74707;SDS011;63360;50.104;8.074;2023-07-20T04:20:56;3.43;;;1.30;;
74707;SDS011;63360;50.104;8.074;2023-07-20T04:23:23;6.07;;;1.60;;
74707;SDS011;63360;50.104;8.074;2023-07-20T04:25:49;4.05;;;1.60;;
74707;SDS011;63360;50.104;8.074;2023-07-20T04:28:17;3.33;;;1.67;;
74707;SDS011;63360;50.104;8.074;2023-07-20T04:30:43;6.53;;;1.50;;
74707;SDS011;63360;50.104;8.074;2023-07-20T04:33:09;4.70;;;1.37;;
74707;SDS011;63360;50.104;8.074;2023-07-20T04:35:50;4.00;;;1.42;;
74707;SDS011;63360;50.104;8.074;2023-07-20T04:38:18;4.88;;;1.67;;
74707;SDS011;63360;50.104;8.074;2023-07-20T04:40:46;3.35;;;1.50;;
74707;SDS011;63360;50.104;8.074;2023-07-20T04:43:16;3.33;;;1.50;;
74707;SDS011;63360;50.104;8.074;2023-07-20T04:45:44;4.83;;;1.80;;
74707;SDS011;63360;50.104;8.074;2023-07-20T04:48:12;8.45;;;1.80;;
74707;SDS011;63360;50.104;8.074;2023-07-20T04:50:42;3.97;;;1.55;;
74707;SDS011;63360;50.104;8.074;2023-07-20T04:53:14;3.50;;;1.58;;
74707;SDS011;63360;50.104;8.074;2023-07-20T04:55:40;4.68;;;1.60;;
74707;SDS011;63360;50.104;8.074;2023-07-20T04:58:17;4.53;;;1.50;;
74707;SDS011;63360;50.104;8.074;2023-07-20T05:00:50;4.80;;;1.52;;
74707;SDS011;63360;50.104;8.074;2023-07-20T05:03:17;4.88;;;1.50;;
74707;SDS011;63360;50.104;8.074;2023-07-20T05:05:45;4.25;;;1.50;;
74707;SDS011;63360;50.104;8.074;2023-07-20T05:08:16;4.32;;;1.50;;
74707;SDS011;63360;50.104;8.074;2023-07-20T05:10:42;3.47;;;1.40;;
74707;SDS011;63360;50.104;8.074;2023-07-20T05:13:09;4.07;;;1.30;;
74707;SDS011;63360;50.104;8.074;2023-07-20T05:15:35;2.67;;;1.38;;
74707;SDS011;63360;50.104;8.074;2023-07-20T05:18:02;3.90;;;1.60;;
74707;SDS011;63360;50.104;8.074;2023-07-20T05:20:28;4.15;;;1.50;;
74707;SDS011;63360;50.104;8.074;2023-07-20T05:22:55;3.90;;;1.73;;
74707;SDS011;63360;50.104;8.074;2023-07-20T05:25:21;5.45;;;1.85;;
74707;SDS011;63360;50.104;8.074;2023-07-20T05:27:49;3.17;;;1.70;;
74707;SDS011;63360;50.104;8.074;2023-07-20T05:30:16;4.93;;;1.80;;
74707;SDS011;63360;50.104;8.074;2023-07-20T05:32:43;4.55;;;1.60;;
74707;SDS011;63360;50.104;8.074;2023-07-20T05:35:11;3.77;;;1.60;;
74707;SDS011;63360;50.104;8.074;2023-07-20T05:37:38;4.68;;;1.80;;
74707;SDS011;63360;50.104;8.074;2023-07-20T05:40:05;4.47;;;1.80;;
74707;SDS011;63360;50.104;8.074;2023-07-20T05:42:34;4.25;;;1.70;;
74707;SDS011;63360;50.104;8.074;2023-07-20T05:45:00;3.17;;;1.70;;
74707;SDS011;63360;50.104;8.074;2023-07-20T05:47:27;4.17;;;1.87;;
74707;SDS011;63360;50.104;8.074;2023-07-20T05:49:53;4.95;;;1.67;;
74707;SDS011;63360;50.104;8.074;2023-07-20T05:52:19;6.45;;;1.70;;
74707;SDS011;63360;50.104;8.074;2023-07-20T05:54:46;5.30;;;2.05;;
74707;SDS011;63360;50.104;8.074;2023-07-20T05:57:12;4.28;;;1.77;;
74707;SDS011;63360;50.104;8.074;2023-07-20T05:59:39;4.17;;;1.83;;
74707;SDS011;63360;50.104;8.074;2023-07-20T06:02:10;5.45;;;2.00;;
74707;SDS011;63360;50.104;8.074;2023-07-20T06:04:38;4.70;;;1.92;;
74707;SDS011;63360;50.104;8.074;2023-07-20T06:07:04;5.65;;;2.22;;
74707;SDS011;63360;50.104;8.074;2023-07-20T06:09:31;4.82;;;2.10;;
74707;SDS011;63360;50.104;8.074;2023-07-20T06:11:57;4.97;;;2.10;;
74707;SDS011;63360;50.104;8.074;2023-07-20T06:14:24;5.63;;;2.30;;
74707;SDS011;63360;50.104;8.074;2023-07-20T06:16:50;3.90;;;1.90;;
74707;SDS011;63360;50.104;8.074;2023-07-20T06:19:17;4.75;;;2.15;;
74707;SDS011;63360;50.104;8.074;2023-07-20T06:21:44;5.05;;;2.30;;
74707;SDS011;63360;50.104;8.074;2023-07-20T06:24:10;4.20;;;2.40;;
74707;SDS011;63360;50.104;8.074;2023-07-20T06:26:37;5.38;;;2.30;;
74707;SDS011;63360;50.104;8.074;2023-07-20T06:29:05;4.07;;;2.10;;
74707;SDS011;63360;50.104;8.074;2023-07-20T06:31:35;3.67;;;1.98;;
74707;SDS011;63360;50.104;8.074;2023-07-20T06:34:02;4.13;;;1.92;;
74707;SDS011;63360;50.104;8.074;2023-07-20T06:36:29;5.00;;;2.10;;
74707;SDS011;63360;50.104;8.074;2023-07-20T06:38:56;5.25;;;2.00;;
74707;SDS011;63360;50.104;8.074;2023-07-20T06:41:25;4.07;;;2.08;;
74707;SDS011;63360;50.104;8.074;2023-07-20T06:43:54;4.55;;;2.25;;
74707;SDS011;63360;50.104;8.074;2023-07-20T06:46:27;4.07;;;2.05;;
74707;SDS011;63360;50.104;8.074;2023-07-20T06:48:54;6.50;;;2.20;;
74707;SDS011;63360;50.104;8.074;2023-07-20T06:51:23;4.70;;;1.88;;
74707;SDS011;63360;50.104;8.074;2023-07-20T06:53:51;4.50;;;1.67;;
74707;SDS011;63360;50.104;8.074;2023-07-20T06:56:17;5.57;;;2.00;;
74707;SDS011;63360;50.104;8.074;2023-07-20T06:58:46;4.10;;;2.05;;
74707;SDS011;63360;50.104;8.074;2023-07-20T07:01:13;5.10;;;2.03;;
74707;SDS011;63360;50.104;8.074;2023-07-20T07:03:40;5.07;;;2.20;;
74707;SDS011;63360;50.104;8.074;2023-07-20T07:06:07;3.85;;;2.03;;
74707;SDS011;63360;50.104;8.074;2023-07-20T07:08:33;5.00;;;2.50;;
74707;SDS011;63360;50.104;8.074;2023-07-20T07:11:01;4.75;;;2.28;;
74707;SDS011;63360;50.104;8.074;2023-07-20T07:13:28;7.30;;;2.20;;
74707;SDS011;63360;50.104;8.074;2023-07-20T07:15:54;4.05;;;1.85;;
74707;SDS011;63360;50.104;8.074;2023-07-20T07:18:21;6.10;;;2.08;;
74707;SDS011;63360;50.104;8.074;2023-07-20T07:20:51;6.00;;;2.15;;
74707;SDS011;63360;50.104;8.074;2023-07-20T07:23:18;4.45;;;1.88;;
74707;SDS011;63360;50.104;8.074;2023-07-20T07:25:45;4.83;;;2.00;;
74707;SDS011;63360;50.104;8.074;2023-07-20T07:28:12;6.10;;;2.30;;
74707;SDS011;63360;50.104;8.074;2023-07-20T07:30:39;6.00;;;1.90;;
74707;SDS011;63360;50.104;8.074;2023-07-20T07:33:05;3.90;;;2.05;;
74707;SDS011;63360;50.104;8.074;2023-07-20T07:35:32;3.72;;;1.55;;
74707;SDS011;63360;50.104;8.074;2023-07-20T07:37:58;4.37;;;1.80;;
74707;SDS011;63360;50.104;8.074;2023-07-20T07:40:44;5.70;;;2.30;;
74707;SDS011;63360;50.104;8.074;2023-07-20T07:43:10;3.80;;;1.80;;
74707;SDS011;63360;50.104;8.074;2023-07-20T07:45:38;6.45;;;2.10;;
74707;SDS011;63360;50.104;8.074;2023-07-20T07:48:04;5.13;;;2.15;;
74707;SDS011;63360;50.104;8.074;2023-07-20T07:50:32;3.90;;;1.87;;
74707;SDS011;63360;50.104;8.074;2023-07-20T07:52:59;5.60;;;2.10;;
74707;SDS011;63360;50.104;8.074;2023-07-20T07:55:26;4.65;;;2.20;;
74707;SDS011;63360;50.104;8.074;2023-07-20T07:57:52;4.40;;;1.98;;
74707;SDS011;63360;50.104;8.074;2023-07-20T08:00:19;4.65;;;2.13;;
74707;SDS011;63360;50.104;8.074;2023-07-20T08:02:46;4.57;;;2.27;;
74707;SDS011;63360;50.104;8.074;2023-07-20T08:05:14;5.90;;;2.10;;
74707;SDS011;63360;50.104;8.074;2023-07-20T08:07:40;5.38;;;1.95;;
74707;SDS011;63360;50.104;8.074;2023-07-20T08:10:07;5.00;;;2.10;;
74707;SDS011;63360;50.104;8.074;2023-07-20T08:12:34;4.55;;;2.05;;
74707;SDS011;63360;50.104;8.074;2023-07-20T08:15:01;3.67;;;1.87;;
74707;SDS011;63360;50.104;8.074;2023-07-20T08:17:28;3.85;;;2.00;;
74707;SDS011;63360;50.104;8.074;2023-07-20T08:19:55;4.00;;;1.80;;
74707;SDS011;63360;50.104;8.074;2023-07-20T08:22:22;5.15;;;1.90;;
74707;SDS011;63360;50.104;8.074;2023-07-20T08:24:48;4.53;;;1.85;;
74707;SDS011;63360;50.104;8.074;2023-07-20T08:27:15;3.87;;;1.80;;
74707;SDS011;63360;50.104;8.074;2023-07-20T08:29:41;4.57;;;2.13;;
74707;SDS011;63360;50.104;8.074;2023-07-20T08:32:08;3.50;;;1.58;;
74707;SDS011;63360;50.104;8.074;2023-07-20T08:34:34;4.35;;;1.88;;
74707;SDS011;63360;50.104;8.074;2023-07-20T08:37:02;6.00;;;2.10;;
74707;SDS011;63360;50.104;8.074;2023-07-20T08:39:28;4.93;;;2.00;;
74707;SDS011;63360;50.104;8.074;2023-07-20T08:41:55;6.00;;;2.10;;
74707;SDS011;63360;50.104;8.074;2023-07-20T08:44:22;3.72;;;2.20;;
74707;SDS011;63360;50.104;8.074;2023-07-20T08:46:49;3.22;;;1.73;;
74707;SDS011;63360;50.104;8.074;2023-07-20T08:49:18;5.07;;;2.40;;
74707;SDS011;63360;50.104;8.074;2023-07-20T08:51:45;4.23;;;2.10;;
74707;SDS011;63360;50.104;8.074;2023-07-20T08:54:12;3.65;;;1.90;;
74707;SDS011;63360;50.104;8.074;2023-07-20T08:56:39;3.92;;;1.83;;
74707;SDS011;63360;50.104;8.074;2023-07-20T08:59:07;3.38;;;1.90;;
74707;SDS011;63360;50.104;8.074;2023-07-20T09:01:34;5.20;;;2.08;;
74707;SDS011;63360;50.104;8.074;2023-07-20T09:04:05;3.27;;;1.80;;
74707;SDS011;63360;50.104;8.074;2023-07-20T09:06:32;4.95;;;2.10;;
74707;SDS011;63360;50.104;8.074;2023-07-20T09:09:00;4.03;;;1.98;;
74707;SDS011;63360;50.104;8.074;2023-07-20T09:11:27;6.05;;;2.20;;
74707;SDS011;63360;50.104;8.074;2023-07-20T09:14:03;5.68;;;1.88;;
74707;SDS011;63360;50.104;8.074;2023-07-20T09:16:30;3.53;;;1.90;;
74707;SDS011;63360;50.104;8.074;2023-07-20T09:18:57;3.70;;;1.92;;
74707;SDS011;63360;50.104;8.074;2023-07-20T09:21:28;4.22;;;1.63;;
74707;SDS011;63360;50.104;8.074;2023-07-20T09:23:56;3.42;;;1.90;;
74707;SDS011;63360;50.104;8.074;2023-07-20T09:26:23;3.58;;;1.80;;
74707;SDS011;63360;50.104;8.074;2023-07-20T09:28:51;4.40;;;2.00;;
74707;SDS011;63360;50.104;8.074;2023-07-20T09:31:20;4.10;;;1.95;;
74707;SDS011;63360;50.104;8.074;2023-07-20T09:33:49;4.32;;;1.50;;
74707;SDS011;63360;50.104;8.074;2023-07-20T09:36:20;3.83;;;1.70;;
74707;SDS011;63360;50.104;8.074;2023-07-20T09:39:07;4.80;;;1.60;;
74707;SDS011;63360;50.104;8.074;2023-07-20T09:41:39;3.43;;;1.50;;
74707;SDS011;63360;50.104;8.074;2023-07-20T09:44:11;2.47;;;1.48;;
74707;SDS011;63360;50.104;8.074;2023-07-20T09:46:41;2.83;;;1.48;;
74707;SDS011;63360;50.104;8.074;2023-07-20T09:49:14;4.15;;;1.40;;
74707;SDS011;63360;50.104;8.074;2023-07-20T09:51:44;4.13;;;1.27;;
74707;SDS011;63360;50.104;8.074;2023-07-20T09:54:12;3.27;;;1.33;;
74707;SDS011;63360;50.104;8.074;2023-07-20T09:56:40;2.85;;;1.33;;
74707;SDS011;63360;50.104;8.074;2023-07-20T09:59:08;2.25;;;1.10;;
74707;SDS011;63360;50.104;8.074;2023-07-20T10:01:35;2.60;;;1.27;;
74707;SDS011;63360;50.104;8.074;2023-07-20T10:04:07;2.42;;;1.42;;
74707;SDS011;63360;50.104;8.074;2023-07-20T10:06:35;2.93;;;1.33;;
74707;SDS011;63360;50.104;8.074;2023-07-20T10:09:08;2.72;;;1.50;;
74707;SDS011;63360;50.104;8.074;2023-07-20T10:11:36;4.00;;;1.58;;
74707;SDS011;63360;50.104;8.074;2023-07-20T10:14:08;2.22;;;1.30;;
74707;SDS011;63360;50.104;8.074;2023-07-20T10:16:48;2.60;;;1.67;;
74707;SDS011;63360;50.104;8.074;2023-07-20T10:19:26;3.77;;;1.70;;
74707;SDS011;63360;50.104;8.074;2023-07-20T10:22:03;3.90;;;1.60;;
74707;SDS011;63360;50.104;8.074;2023-07-20T10:24:35;4.03;;;1.45;;
74707;SDS011;63360;50.104;8.074;2023-07-20T10:27:03;2.90;;;1.52;;
74707;SDS011;63360;50.104;8.074;2023-07-20T10:29:31;5.55;;;1.60;;
74707;SDS011;63360;50.104;8.074;2023-07-20T10:31:58;2.27;;;1.40;;
74707;SDS011;63360;50.104;8.074;2023-07-20T10:34:26;3.60;;;1.70;;
74707;SDS011;63360;50.104;8.074;2023-07-20T10:36:53;3.03;;;1.50;;
74707;SDS011;63360;50.104;8.074;2023-07-20T10:39:27;2.97;;;1.45;;
74707;SDS011;63360;50.104;8.074;2023-07-20T10:42:03;2.10;;;1.30;;
74707;SDS011;63360;50.104;8.074;2023-07-20T10:44:34;2.83;;;1.50;;
74707;SDS011;63360;50.104;8.074;2023-07-20T10:47:06;3.25;;;1.63;;
74707;SDS011;63360;50.104;8.074;2023-07-20T10:49:59;3.65;;;1.60;;
74707;SDS011;63360;50.104;8.074;2023-07-20T10:52:26;3.40;;;1.65;;
74707;SDS011;63360;50.104;8.074;2023-07-20T10:55:16;3.97;;;1.60;;
74707;SDS011;63360;50.104;8.074;2023-07-20T10:57:43;2.47;;;1.27;;
74707;SDS011;63360;50.104;8.074;2023-07-20T11:00:33;2.70;;;1.30;;
74707;SDS011;63360;50.104;8.074;2023-07-20T11:03:00;3.08;;;1.60;;
74707;SDS011;63360;50.104;8.074;2023-07-20T11:08:00;3.47;;;1.70;;
74707;SDS011;63360;50.104;8.074;2023-07-20T11:10:31;3.30;;;1.70;;
74707;SDS011;63360;50.104;8.074;2023-07-20T11:16:01;3.20;;;1.50;;
74707;SDS011;63360;50.104;8.074;2023-07-20T11:18:32;2.67;;;1.60;;
74707;SDS011;63360;50.104;8.074;2023-07-20T11:21:00;4.78;;;1.60;;
74707;SDS011;63360;50.104;8.074;2023-07-20T11:23:27;3.63;;;1.63;;
74707;SDS011;63360;50.104;8.074;2023-07-20T11:25:55;3.10;;;1.50;;
74707;SDS011;63360;50.104;8.074;2023-07-20T11:28:22;3.15;;;1.70;;
74707;SDS011;63360;50.104;8.074;2023-07-20T11:30:51;2.58;;;1.52;;
74707;SDS011;63360;50.104;8.074;2023-07-20T11:33:21;4.13;;;1.77;;
74707;SDS011;63360;50.104;8.074;2023-07-20T11:35:48;2.77;;;1.50;;
74707;SDS011;63360;50.104;8.074;2023-07-20T11:38:17;3.67;;;1.48;;
74707;SDS011;63360;50.104;8.074;2023-07-20T11:40:46;2.03;;;1.30;;
74707;SDS011;63360;50.104;8.074;2023-07-20T11:43:13;3.25;;;1.58;;
74707;SDS011;63360;50.104;8.074;2023-07-20T11:45:42;2.53;;;1.30;;
74707;SDS011;63360;50.104;8.074;2023-07-20T11:48:14;3.07;;;1.60;;
74707;SDS011;63360;50.104;8.074;2023-07-20T11:50:43;3.97;;;1.60;;
74707;SDS011;63360;50.104;8.074;2023-07-20T11:53:10;4.18;;;1.55;;
74707;SDS011;63360;50.104;8.074;2023-07-20T11:55:37;3.05;;;1.40;;
74707;SDS011;63360;50.104;8.074;2023-07-20T11:58:06;2.33;;;1.20;;
74707;SDS011;63360;50.104;8.074;2023-07-20T12:00:34;3.33;;;1.30;;
74707;SDS011;63360;50.104;8.074;2023-07-20T12:03:04;2.30;;;1.40;;
74707;SDS011;63360;50.104;8.074;2023-07-20T12:05:33;2.17;;;1.20;;
74707;SDS011;63360;50.104;8.074;2023-07-20T12:08:20;2.55;;;1.10;;
74707;SDS011;63360;50.104;8.074;2023-07-20T12:10:48;2.22;;;1.10;;
74707;SDS011;63360;50.104;8.074;2023-07-20T12:13:14;2.93;;;1.67;;
74707;SDS011;63360;50.104;8.074;2023-07-20T12:15:41;2.30;;;1.27;;
74707;SDS011;63360;50.104;8.074;2023-07-20T12:18:08;2.35;;;1.30;;
74707;SDS011;63360;50.104;8.074;2023-07-20T12:20:35;4.03;;;1.50;;
74707;SDS011;63360;50.104;8.074;2023-07-20T12:25:36;2.23;;;1.30;;
74707;SDS011;63360;50.104;8.074;2023-07-20T12:28:04;1.90;;;1.10;;
74707;SDS011;63360;50.104;8.074;2023-07-20T12:30:35;1.95;;;1.10;;
74707;SDS011;63360;50.104;8.074;2023-07-20T12:33:05;2.80;;;1.45;;
74707;SDS011;63360;50.104;8.074;2023-07-20T12:35:32;2.50;;;1.30;;
74707;SDS011;63360;50.104;8.074;2023-07-20T12:37:59;1.50;;;1.10;;
74707;SDS011;63360;50.104;8.074;2023-07-20T12:40:26;2.58;;;1.40;;
74707;SDS011;63360;50.104;8.074;2023-07-20T12:42:52;2.20;;;1.30;;
74707;SDS011;63360;50.104;8.074;2023-07-20T12:45:19;2.33;;;1.27;;
74707;SDS011;63360;50.104;8.074;2023-07-20T12:47:45;4.22;;;1.50;;
74707;SDS011;63360;50.104;8.074;2023-07-20T12:50:12;2.33;;;1.30;;
74707;SDS011;63360;50.104;8.074;2023-07-20T12:52:39;2.15;;;1.20;;
74707;SDS011;63360;50.104;8.074;2023-07-20T12:55:06;2.88;;;1.20;;
74707;SDS011;63360;50.104;8.074;2023-07-20T12:57:34;1.83;;;1.20;;
74707;SDS011;63360;50.104;8.074;2023-07-20T13:00:02;2.55;;;1.00;;
74707;SDS011;63360;50.104;8.074;2023-07-20T13:02:31;2.87;;;1.00;;
74707;SDS011;63360;50.104;8.074;2023-07-20T13:04:58;3.25;;;1.08;;
74707;SDS011;63360;50.104;8.074;2023-07-20T13:07:32;2.33;;;1.15;;
74707;SDS011;63360;50.104;8.074;2023-07-20T13:10:02;2.58;;;1.20;;
74707;SDS011;63360;50.104;8.074;2023-07-20T13:12:30;2.22;;;1.27;;
74707;SDS011;63360;50.104;8.074;2023-07-20T13:14:58;2.53;;;1.40;;
74707;SDS011;63360;50.104;8.074;2023-07-20T13:17:27;2.22;;;1.30;;
74707;SDS011;63360;50.104;8.074;2023-07-20T13:19:56;2.65;;;1.30;;
74707;SDS011;63360;50.104;8.074;2023-07-20T13:22:23;4.38;;;1.40;;
74707;SDS011;63360;50.104;8.074;2023-07-20T13:24:49;4.57;;;1.40;;
74707;SDS011;63360;50.104;8.074;2023-07-20T13:27:17;4.07;;;1.40;;
74707;SDS011;63360;50.104;8.074;2023-07-20T13:29:45;4.03;;;1.60;;
74707;SDS011;63360;50.104;8.074;2023-07-20T13:32:14;2.10;;;1.40;;
74707;SDS011;63360;50.104;8.074;2023-07-20T13:34:41;2.92;;;1.40;;
74707;SDS011;63360;50.104;8.074;2023-07-20T13:37:08;2.95;;;1.40;;
74707;SDS011;63360;50.104;8.074;2023-07-20T13:39:38;3.80;;;1.70;;
74707;SDS011;63360;50.104;8.074;2023-07-20T13:42:05;4.38;;;1.42;;
74707;SDS011;63360;50.104;8.074;2023-07-20T13:44:32;3.70;;;1.40;;
74707;SDS011;63360;50.104;8.074;2023-07-20T13:46:59;2.72;;;1.50;;
74707;SDS011;63360;50.104;8.074;2023-07-20T13:49:45;3.28;;;1.60;;
74707;SDS011;63360;50.104;8.074;2023-07-20T13:52:13;3.60;;;1.50;;
74707;SDS011;63360;50.104;8.074;2023-07-20T13:54:43;3.10;;;1.30;;
74707;SDS011;63360;50.104;8.074;2023-07-20T13:57:13;3.58;;;1.70;;
74707;SDS011;63360;50.104;8.074;2023-07-20T13:59:41;2.28;;;1.40;;
74707;SDS011;63360;50.104;8.074;2023-07-20T14:02:08;3.47;;;1.65;;
74707;SDS011;63360;50.104;8.074;2023-07-20T14:04:37;3.30;;;1.60;;
74707;SDS011;63360;50.104;8.074;2023-07-20T14:07:04;3.05;;;1.58;;
74707;SDS011;63360;50.104;8.074;2023-07-20T14:09:32;3.60;;;1.90;;
74707;SDS011;63360;50.104;8.074;2023-07-20T14:11:58;3.15;;;1.67;;
74707;SDS011;63360;50.104;8.074;2023-07-20T14:14:28;3.22;;;1.50;;
74707;SDS011;63360;50.104;8.074;2023-07-20T14:16:54;1.90;;;1.20;;
74707;SDS011;63360;50.104;8.074;2023-07-20T14:19:22;3.65;;;1.50;;
74707;SDS011;63360;50.104;8.074;2023-07-20T14:21:48;4.25;;;1.70;;
74707;SDS011;63360;50.104;8.074;2023-07-20T14:24:15;3.65;;;1.40;;
74707;SDS011;63360;50.104;8.074;2023-07-20T14:26:44;2.55;;;1.70;;
74707;SDS011;63360;50.104;8.074;2023-07-20T14:29:11;2.87;;;1.30;;
74707;SDS011;63360;50.104;8.074;2023-07-20T14:31:38;5.18;;;1.40;;
74707;SDS011;63360;50.104;8.074;2023-07-20T14:34:04;2.55;;;1.40;;
74707;SDS011;63360;50.104;8.074;2023-07-20T14:36:31;4.25;;;1.70;;
74707;SDS011;63360;50.104;8.074;2023-07-20T14:39:00;2.85;;;1.58;;
74707;SDS011;63360;50.104;8.074;2023-07-20T14:41:26;3.47;;;1.67;;
74707;SDS011;63360;50.104;8.074;2023-07-20T14:43:53;3.10;;;1.40;;
74707;SDS011;63360;50.104;8.074;2023-07-20T14:46:19;3.95;;;1.42;;
74707;SDS011;63360;50.104;8.074;2023-07-20T14:48:47;2.20;;;1.45;;
74707;SDS011;63360;50.104;8.074;2023-07-20T14:51:14;3.55;;;1.40;;
74707;SDS011;63360;50.104;8.074;2023-07-20T14:53:40;2.03;;;1.30;;
74707;SDS011;63360;50.104;8.074;2023-07-20T14:56:07;3.17;;;1.50;;
74707;SDS011;63360;50.104;8.074;2023-07-20T14:58:34;3.75;;;1.30;;
74707;SDS011;63360;50.104;8.074;2023-07-20T15:01:01;3.15;;;1.40;;
74707;SDS011;63360;50.104;8.074;2023-07-20T15:03:29;2.60;;;1.77;;
74707;SDS011;63360;50.104;8.074;2023-07-20T15:05:57;3.37;;;1.50;;